sensor_id;sensor_type;location;lat;lon;timestamp;P1;durP1;ratioP1;P2;durP2;ratioP2
70543;SDS011;58097;48.364;-1.224;2024-03-23T00:54:35;17.85;;;1.92;;
70543;SDS011;58097;48.364;-1.224;2024-03-23T00:57:01;11.80;;;1.75;;
70543;SDS011;58097;48.364;-1.224;2024-03-23T00:59:26;15.50;;;2.10;;
70543;SDS011;58097;48.364;-1.224;2024-03-23T01:01:53;11.73;;;1.60;;
70543;SDS011;58097;48.364;-1.224;2024-03-23T01:04:19;13.80;;;1.67;;
70543;SDS011;58097;48.364;-1.224;2024-03-23T01:06:44;10.60;;;1.92;;
70543;SDS011;58097;48.364;-1.224;2024-03-23T01:09:10;27.00;;;2.25;;
70543;SDS011;58097;48.364;-1.224;2024-03-23T01:11:36;13.80;;;1.92;;
70543;SDS011;58097;48.364;-1.224;2024-03-23T01:14:02;15.18;;;2.08;;
70543;SDS011;58097;48.364;-1.224;2024-03-23T01:16:27;15.63;;;2.00;;
70543;SDS011;58097;48.364;-1.224;2024-03-23T01:18:53;15.32;;;2.13;;
70543;SDS011;58097;48.364;-1.224;2024-03-23T01:21:18;20.55;;;2.55;;
70543;SDS011;58097;48.364;-1.224;2024-03-23T01:23:43;16.90;;;2.92;;
70543;SDS011;58097;48.364;-1.224;2024-03-23T01:26:09;14.98;;;2.75;;
70543;SDS011;58097;48.364;-1.224;2024-03-23T01:28:34;16.27;;;1.77;;
70543;SDS011;58097;48.364;-1.224;2024-03-23T01:31:00;16.05;;;2.13;;
70543;SDS011;58097;48.364;-1.224;2024-03-23T01:33:25;18.25;;;3.00;;
70543;SDS011;58097;48.364;-1.224;2024-03-23T01:35:50;16.60;;;2.40;;
70543;SDS011;58097;48.364;-1.224;2024-03-23T01:38:15;16.17;;;2.38;;
70543;SDS011;58097;48.364;-1.224;2024-03-23T01:40:41;20.20;;;2.75;;
70543;SDS011;58097;48.364;-1.224;2024-03-23T01:43:07;13.68;;;1.85;;
70543;SDS011;58097;48.364;-1.224;2024-03-23T01:45:33;20.67;;;2.58;;
70543;SDS011;58097;48.364;-1.224;2024-03-23T01:47:59;12.15;;;1.88;;
70543;SDS011;58097;48.364;-1.224;2024-03-23T01:50:25;18.38;;;2.70;;
70543;SDS011;58097;48.364;-1.224;2024-03-23T01:52:52;22.67;;;2.45;;
70543;SDS011;58097;48.364;-1.224;2024-03-23T01:55:18;14.07;;;2.08;;
70543;SDS011;58097;48.364;-1.224;2024-03-23T01:57:44;10.95;;;1.95;;
70543;SDS011;58097;48.364;-1.224;2024-03-23T02:00:10;13.02;;;2.00;;
70543;SDS011;58097;48.364;-1.224;2024-03-23T02:02:40;18.13;;;2.65;;
70543;SDS011;58097;48.364;-1.224;2024-03-23T02:05:12;17.05;;;2.15;;
70543;SDS011;58097;48.364;-1.224;2024-03-23T02:07:41;16.45;;;2.50;;
70543;SDS011;58097;48.364;-1.224;2024-03-23T02:10:08;16.90;;;2.17;;
70543;SDS011;58097;48.364;-1.224;2024-03-23T02:12:40;23.70;;;2.33;;
70543;SDS011;58097;48.364;-1.224;2024-03-23T02:15:05;17.73;;;2.55;;
70543;SDS011;58097;48.364;-1.224;2024-03-23T02:17:33;22.90;;;2.70;;
70543;SDS011;58097;48.364;-1.224;2024-03-23T02:20:00;19.73;;;3.08;;
70543;SDS011;58097;48.364;-1.224;2024-03-23T02:22:33;19.63;;;2.65;;
70543;SDS011;58097;48.364;-1.224;2024-03-23T02:25:00;15.70;;;2.50;;
70543;SDS011;58097;48.364;-1.224;2024-03-23T02:27:27;14.57;;;2.70;;
70543;SDS011;58097;48.364;-1.224;2024-03-23T02:29:53;17.75;;;2.55;;
70543;SDS011;58097;48.364;-1.224;2024-03-23T02:32:18;15.63;;;2.22;;
70543;SDS011;58097;48.364;-1.224;2024-03-23T02:34:43;17.73;;;2.15;;
70543;SDS011;58097;48.364;-1.224;2024-03-23T02:37:12;18.40;;;1.98;;
70543;SDS011;58097;48.364;-1.224;2024-03-23T02:39:37;13.35;;;2.42;;
70543;SDS011;58097;48.364;-1.224;2024-03-23T02:42:03;13.80;;;2.20;;
70543;SDS011;58097;48.364;-1.224;2024-03-23T02:44:28;10.70;;;1.10;;
70543;SDS011;58097;48.364;-1.224;2024-03-23T02:46:53;7.25;;;1.55;;
70543;SDS011;58097;48.364;-1.224;2024-03-23T02:49:19;10.05;;;1.45;;
70543;SDS011;58097;48.364;-1.224;2024-03-23T02:51:44;7.35;;;1.45;;
70543;SDS011;58097;48.364;-1.224;2024-03-23T02:54:10;4.22;;;1.10;;
70543;SDS011;58097;48.364;-1.224;2024-03-23T02:56:35;6.90;;;1.25;;
70543;SDS011;58097;48.364;-1.224;2024-03-23T02:59:01;9.18;;;1.35;;
70543;SDS011;58097;48.364;-1.224;2024-03-23T03:01:26;11.88;;;1.40;;
70543;SDS011;58097;48.364;-1.224;2024-03-23T03:03:51;6.68;;;1.40;;
70543;SDS011;58097;48.364;-1.224;2024-03-23T03:06:26;9.55;;;1.30;;
70543;SDS011;58097;48.364;-1.224;2024-03-23T03:08:52;8.70;;;1.50;;
70543;SDS011;58097;48.364;-1.224;2024-03-23T03:11:17;10.25;;;1.80;;
70543;SDS011;58097;48.364;-1.224;2024-03-23T03:13:42;7.45;;;1.40;;
70543;SDS011;58097;48.364;-1.224;2024-03-23T03:16:08;13.18;;;2.08;;
70543;SDS011;58097;48.364;-1.224;2024-03-23T03:18:35;10.43;;;1.42;;
70543;SDS011;58097;48.364;-1.224;2024-03-23T03:21:00;10.45;;;1.48;;
70543;SDS011;58097;48.364;-1.224;2024-03-23T03:23:25;8.73;;;1.33;;
70543;SDS011;58097;48.364;-1.224;2024-03-23T03:25:51;14.27;;;1.75;;
70543;SDS011;58097;48.364;-1.224;2024-03-23T03:28:16;23.35;;;1.92;;
70543;SDS011;58097;48.364;-1.224;2024-03-23T03:30:41;5.10;;;1.20;;
70543;SDS011;58097;48.364;-1.224;2024-03-23T03:33:07;13.80;;;1.60;;
70543;SDS011;58097;48.364;-1.224;2024-03-23T03:35:32;14.70;;;2.15;;
70543;SDS011;58097;48.364;-1.224;2024-03-23T03:37:57;11.13;;;1.80;;
70543;SDS011;58097;48.364;-1.224;2024-03-23T03:40:23;9.88;;;1.38;;
70543;SDS011;58097;48.364;-1.224;2024-03-23T03:42:49;9.55;;;1.52;;
70543;SDS011;58097;48.364;-1.224;2024-03-23T03:45:14;7.32;;;1.90;;
70543;SDS011;58097;48.364;-1.224;2024-03-23T03:47:40;16.00;;;2.25;;
70543;SDS011;58097;48.364;-1.224;2024-03-23T03:50:05;14.45;;;2.45;;
70543;SDS011;58097;48.364;-1.224;2024-03-23T03:52:31;11.90;;;1.77;;
70543;SDS011;58097;48.364;-1.224;2024-03-23T03:55:01;12.60;;;2.38;;
70543;SDS011;58097;48.364;-1.224;2024-03-23T03:57:27;13.57;;;1.67;;
70543;SDS011;58097;48.364;-1.224;2024-03-23T03:59:53;8.80;;;2.00;;
70543;SDS011;58097;48.364;-1.224;2024-03-23T04:02:18;9.05;;;1.73;;
70543;SDS011;58097;48.364;-1.224;2024-03-23T04:04:44;14.40;;;2.17;;
70543;SDS011;58097;48.364;-1.224;2024-03-23T04:07:09;11.77;;;1.85;;
70543;SDS011;58097;48.364;-1.224;2024-03-23T04:09:34;7.97;;;1.50;;
70543;SDS011;58097;48.364;-1.224;2024-03-23T04:12:00;14.60;;;1.85;;
70543;SDS011;58097;48.364;-1.224;2024-03-23T04:14:25;9.65;;;1.67;;
70543;SDS011;58097;48.364;-1.224;2024-03-23T04:16:51;17.38;;;1.92;;
70543;SDS011;58097;48.364;-1.224;2024-03-23T04:19:16;18.88;;;1.75;;
70543;SDS011;58097;48.364;-1.224;2024-03-23T04:21:42;11.18;;;1.70;;
70543;SDS011;58097;48.364;-1.224;2024-03-23T04:24:07;14.25;;;2.35;;
70543;SDS011;58097;48.364;-1.224;2024-03-23T04:26:42;9.48;;;1.92;;
70543;SDS011;58097;48.364;-1.224;2024-03-23T04:29:08;9.40;;;1.60;;
70543;SDS011;58097;48.364;-1.224;2024-03-23T04:31:33;12.90;;;1.65;;
70543;SDS011;58097;48.364;-1.224;2024-03-23T04:34:00;11.05;;;1.73;;
70543;SDS011;58097;48.364;-1.224;2024-03-23T04:36:25;16.23;;;2.00;;
70543;SDS011;58097;48.364;-1.224;2024-03-23T04:38:51;11.85;;;1.83;;
70543;SDS011;58097;48.364;-1.224;2024-03-23T04:41:17;13.00;;;1.98;;
70543;SDS011;58097;48.364;-1.224;2024-03-23T04:43:43;12.90;;;1.77;;
70543;SDS011;58097;48.364;-1.224;2024-03-23T04:46:08;12.35;;;2.13;;
70543;SDS011;58097;48.364;-1.224;2024-03-23T04:48:34;14.00;;;2.22;;
70543;SDS011;58097;48.364;-1.224;2024-03-23T04:50:59;15.18;;;2.17;;
70543;SDS011;58097;48.364;-1.224;2024-03-23T04:53:24;15.43;;;2.00;;
70543;SDS011;58097;48.364;-1.224;2024-03-23T04:55:53;13.02;;;1.98;;
70543;SDS011;58097;48.364;-1.224;2024-03-23T04:58:20;15.10;;;1.75;;
70543;SDS011;58097;48.364;-1.224;2024-03-23T05:00:45;16.70;;;1.60;;
70543;SDS011;58097;48.364;-1.224;2024-03-23T05:03:10;13.25;;;1.92;;
70543;SDS011;58097;48.364;-1.224;2024-03-23T05:05:36;12.68;;;1.80;;
70543;SDS011;58097;48.364;-1.224;2024-03-23T05:08:01;9.45;;;1.58;;
70543;SDS011;58097;48.364;-1.224;2024-03-23T05:10:26;8.55;;;1.70;;
70543;SDS011;58097;48.364;-1.224;2024-03-23T05:12:52;16.38;;;2.28;;
70543;SDS011;58097;48.364;-1.224;2024-03-23T05:15:17;4.93;;;1.27;;
70543;SDS011;58097;48.364;-1.224;2024-03-23T05:17:43;10.93;;;1.70;;
70543;SDS011;58097;48.364;-1.224;2024-03-23T05:20:08;11.73;;;1.75;;
70543;SDS011;58097;48.364;-1.224;2024-03-23T05:22:34;8.23;;;1.83;;
70543;SDS011;58097;48.364;-1.224;2024-03-23T05:25:00;16.70;;;2.20;;
70543;SDS011;58097;48.364;-1.224;2024-03-23T05:27:26;11.27;;;2.17;;
70543;SDS011;58097;48.364;-1.224;2024-03-23T05:29:51;13.50;;;2.13;;
70543;SDS011;58097;48.364;-1.224;2024-03-23T05:32:17;27.02;;;2.10;;
70543;SDS011;58097;48.364;-1.224;2024-03-23T05:34:42;7.75;;;1.48;;
70543;SDS011;58097;48.364;-1.224;2024-03-23T05:37:09;12.90;;;2.10;;
70543;SDS011;58097;48.364;-1.224;2024-03-23T05:39:34;10.00;;;1.48;;
70543;SDS011;58097;48.364;-1.224;2024-03-23T05:41:59;8.48;;;1.80;;
70543;SDS011;58097;48.364;-1.224;2024-03-23T05:44:25;12.77;;;2.05;;
70543;SDS011;58097;48.364;-1.224;2024-03-23T05:46:50;9.93;;;1.95;;
70543;SDS011;58097;48.364;-1.224;2024-03-23T05:49:15;18.25;;;2.10;;
70543;SDS011;58097;48.364;-1.224;2024-03-23T05:51:42;18.08;;;2.05;;
70543;SDS011;58097;48.364;-1.224;2024-03-23T05:54:07;11.18;;;1.48;;
70543;SDS011;58097;48.364;-1.224;2024-03-23T05:56:33;14.23;;;1.48;;
70543;SDS011;58097;48.364;-1.224;2024-03-23T05:58:58;10.27;;;1.40;;
70543;SDS011;58097;48.364;-1.224;2024-03-23T06:01:23;7.82;;;1.40;;
70543;SDS011;58097;48.364;-1.224;2024-03-23T06:03:49;13.73;;;1.85;;
70543;SDS011;58097;48.364;-1.224;2024-03-23T06:06:14;13.10;;;1.52;;
70543;SDS011;58097;48.364;-1.224;2024-03-23T06:08:39;12.27;;;1.88;;
70543;SDS011;58097;48.364;-1.224;2024-03-23T06:11:05;7.55;;;1.00;;
70543;SDS011;58097;48.364;-1.224;2024-03-23T06:13:33;8.25;;;1.40;;
70543;SDS011;58097;48.364;-1.224;2024-03-23T06:16:00;7.63;;;1.15;;
70543;SDS011;58097;48.364;-1.224;2024-03-23T06:18:26;8.05;;;1.67;;
70543;SDS011;58097;48.364;-1.224;2024-03-23T06:20:51;12.18;;;1.90;;
70543;SDS011;58097;48.364;-1.224;2024-03-23T06:23:17;8.27;;;1.50;;
70543;SDS011;58097;48.364;-1.224;2024-03-23T06:25:44;13.43;;;1.83;;
70543;SDS011;58097;48.364;-1.224;2024-03-23T06:28:10;14.88;;;2.17;;
70543;SDS011;58097;48.364;-1.224;2024-03-23T06:30:35;14.45;;;2.08;;
70543;SDS011;58097;48.364;-1.224;2024-03-23T06:33:01;8.15;;;1.55;;
70543;SDS011;58097;48.364;-1.224;2024-03-23T06:35:26;7.30;;;1.52;;
70543;SDS011;58097;48.364;-1.224;2024-03-23T06:37:52;8.43;;;1.88;;
70543;SDS011;58097;48.364;-1.224;2024-03-23T06:40:17;11.23;;;1.73;;
70543;SDS011;58097;48.364;-1.224;2024-03-23T06:42:43;7.60;;;1.75;;
70543;SDS011;58097;48.364;-1.224;2024-03-23T06:45:08;5.72;;;1.17;;
70543;SDS011;58097;48.364;-1.224;2024-03-23T06:47:34;8.23;;;1.65;;
70543;SDS011;58097;48.364;-1.224;2024-03-23T06:49:59;13.52;;;1.73;;
70543;SDS011;58097;48.364;-1.224;2024-03-23T06:52:28;7.38;;;1.58;;
70543;SDS011;58097;48.364;-1.224;2024-03-23T06:54:57;12.60;;;2.08;;
70543;SDS011;58097;48.364;-1.224;2024-03-23T06:57:23;13.73;;;1.52;;
70543;SDS011;58097;48.364;-1.224;2024-03-23T06:59:48;8.93;;;1.40;;
70543;SDS011;58097;48.364;-1.224;2024-03-23T07:02:14;11.82;;;1.85;;
70543;SDS011;58097;48.364;-1.224;2024-03-23T07:04:40;11.07;;;1.55;;
70543;SDS011;58097;48.364;-1.224;2024-03-23T07:07:06;13.02;;;1.50;;
70543;SDS011;58097;48.364;-1.224;2024-03-23T07:09:31;13.85;;;1.95;;
70543;SDS011;58097;48.364;-1.224;2024-03-23T07:11:57;9.73;;;1.52;;
70543;SDS011;58097;48.364;-1.224;2024-03-23T07:14:23;13.45;;;1.60;;
70543;SDS011;58097;48.364;-1.224;2024-03-23T07:16:49;14.95;;;1.23;;
70543;SDS011;58097;48.364;-1.224;2024-03-23T07:19:15;12.05;;;1.83;;
70543;SDS011;58097;48.364;-1.224;2024-03-23T07:21:41;10.98;;;1.85;;
70543;SDS011;58097;48.364;-1.224;2024-03-23T07:24:10;14.30;;;1.70;;
70543;SDS011;58097;48.364;-1.224;2024-03-23T07:26:36;10.15;;;2.63;;
70543;SDS011;58097;48.364;-1.224;2024-03-23T07:29:02;13.45;;;2.90;;
70543;SDS011;58097;48.364;-1.224;2024-03-23T07:31:28;12.85;;;1.83;;
70543;SDS011;58097;48.364;-1.224;2024-03-23T07:33:53;10.07;;;1.60;;
70543;SDS011;58097;48.364;-1.224;2024-03-23T07:36:19;4.53;;;1.48;;
70543;SDS011;58097;48.364;-1.224;2024-03-23T07:38:44;7.18;;;1.75;;
70543;SDS011;58097;48.364;-1.224;2024-03-23T07:41:19;6.78;;;1.60;;
70543;SDS011;58097;48.364;-1.224;2024-03-23T07:43:46;13.75;;;2.17;;
70543;SDS011;58097;48.364;-1.224;2024-03-23T07:46:12;9.13;;;1.60;;
70543;SDS011;58097;48.364;-1.224;2024-03-23T07:48:38;7.65;;;1.90;;
70543;SDS011;58097;48.364;-1.224;2024-03-23T07:51:06;6.75;;;1.60;;
70543;SDS011;58097;48.364;-1.224;2024-03-23T07:53:33;8.57;;;1.83;;
70543;SDS011;58097;48.364;-1.224;2024-03-23T07:56:00;8.70;;;1.58;;
70543;SDS011;58097;48.364;-1.224;2024-03-23T07:58:33;10.77;;;1.42;;
70543;SDS011;58097;48.364;-1.224;2024-03-23T08:01:08;6.20;;;1.42;;
70543;SDS011;58097;48.364;-1.224;2024-03-23T08:03:36;8.82;;;1.40;;
70543;SDS011;58097;48.364;-1.224;2024-03-23T08:08:37;16.45;;;1.58;;
70543;SDS011;58097;48.364;-1.224;2024-03-23T08:11:03;9.18;;;1.30;;
70543;SDS011;58097;48.364;-1.224;2024-03-23T08:13:29;6.20;;;1.23;;
70543;SDS011;58097;48.364;-1.224;2024-03-23T08:16:01;7.10;;;1.10;;
70543;SDS011;58097;48.364;-1.224;2024-03-23T08:18:28;9.25;;;1.50;;
70543;SDS011;58097;48.364;-1.224;2024-03-23T08:20:57;6.55;;;1.45;;
70543;SDS011;58097;48.364;-1.224;2024-03-23T08:23:27;6.10;;;1.60;;
70543;SDS011;58097;48.364;-1.224;2024-03-23T08:25:57;7.03;;;1.20;;
70543;SDS011;58097;48.364;-1.224;2024-03-23T08:28:24;4.97;;;1.17;;
70543;SDS011;58097;48.364;-1.224;2024-03-23T08:30:50;10.07;;;1.55;;
70543;SDS011;58097;48.364;-1.224;2024-03-23T08:33:16;9.73;;;1.80;;
70543;SDS011;58097;48.364;-1.224;2024-03-23T08:35:41;7.63;;;1.20;;
70543;SDS011;58097;48.364;-1.224;2024-03-23T08:38:07;10.98;;;1.50;;
70543;SDS011;58097;48.364;-1.224;2024-03-23T08:40:32;10.10;;;1.23;;
70543;SDS011;58097;48.364;-1.224;2024-03-23T08:42:58;12.73;;;2.00;;
70543;SDS011;58097;48.364;-1.224;2024-03-23T08:45:24;10.95;;;1.50;;
70543;SDS011;58097;48.364;-1.224;2024-03-23T08:47:50;5.18;;;1.30;;
70543;SDS011;58097;48.364;-1.224;2024-03-23T08:50:15;5.32;;;1.23;;
70543;SDS011;58097;48.364;-1.224;2024-03-23T08:52:41;16.02;;;1.88;;
70543;SDS011;58097;48.364;-1.224;2024-03-23T08:55:06;12.43;;;1.75;;
70543;SDS011;58097;48.364;-1.224;2024-03-23T08:57:32;7.00;;;1.77;;
70543;SDS011;58097;48.364;-1.224;2024-03-23T08:59:57;5.53;;;1.25;;
70543;SDS011;58097;48.364;-1.224;2024-03-23T09:02:23;7.85;;;1.58;;
70543;SDS011;58097;48.364;-1.224;2024-03-23T09:04:48;8.77;;;1.55;;
70543;SDS011;58097;48.364;-1.224;2024-03-23T09:07:13;11.35;;;1.60;;
70543;SDS011;58097;48.364;-1.224;2024-03-23T09:09:39;9.95;;;1.75;;
70543;SDS011;58097;48.364;-1.224;2024-03-23T09:12:05;13.07;;;2.17;;
70543;SDS011;58097;48.364;-1.224;2024-03-23T09:14:31;19.80;;;2.80;;
70543;SDS011;58097;48.364;-1.224;2024-03-23T09:16:58;10.27;;;1.73;;
70543;SDS011;58097;48.364;-1.224;2024-03-23T09:19:23;14.05;;;2.17;;
70543;SDS011;58097;48.364;-1.224;2024-03-23T09:21:49;12.98;;;2.30;;
70543;SDS011;58097;48.364;-1.224;2024-03-23T09:24:14;13.60;;;2.38;;
70543;SDS011;58097;48.364;-1.224;2024-03-23T09:26:39;19.10;;;2.67;;
70543;SDS011;58097;48.364;-1.224;2024-03-23T09:29:05;10.80;;;1.85;;
70543;SDS011;58097;48.364;-1.224;2024-03-23T09:31:30;11.93;;;2.70;;
70543;SDS011;58097;48.364;-1.224;2024-03-23T09:33:57;7.30;;;1.80;;
70543;SDS011;58097;48.364;-1.224;2024-03-23T09:36:23;15.80;;;2.05;;
70543;SDS011;58097;48.364;-1.224;2024-03-23T09:38:48;11.13;;;1.63;;
70543;SDS011;58097;48.364;-1.224;2024-03-23T09:41:14;12.23;;;1.90;;
70543;SDS011;58097;48.364;-1.224;2024-03-23T09:43:40;13.63;;;1.90;;
70543;SDS011;58097;48.364;-1.224;2024-03-23T09:46:05;10.88;;;1.90;;
70543;SDS011;58097;48.364;-1.224;2024-03-23T09:48:31;7.35;;;1.50;;
70543;SDS011;58097;48.364;-1.224;2024-03-23T09:50:56;11.10;;;1.60;;
70543;SDS011;58097;48.364;-1.224;2024-03-23T09:53:22;7.57;;;1.80;;
70543;SDS011;58097;48.364;-1.224;2024-03-23T09:55:47;12.18;;;2.42;;
70543;SDS011;58097;48.364;-1.224;2024-03-23T09:58:16;11.88;;;1.92;;
70543;SDS011;58097;48.364;-1.224;2024-03-23T10:00:43;11.57;;;1.95;;
70543;SDS011;58097;48.364;-1.224;2024-03-23T10:03:08;18.10;;;2.28;;
70543;SDS011;58097;48.364;-1.224;2024-03-23T10:05:36;10.88;;;1.80;;
70543;SDS011;58097;48.364;-1.224;2024-03-23T10:08:23;10.18;;;1.38;;
70543;SDS011;58097;48.364;-1.224;2024-03-23T10:10:48;12.18;;;1.65;;
70543;SDS011;58097;48.364;-1.224;2024-03-23T10:13:23;10.90;;;2.10;;
70543;SDS011;58097;48.364;-1.224;2024-03-23T10:15:54;8.30;;;1.67;;
70543;SDS011;58097;48.364;-1.224;2024-03-23T10:18:21;11.15;;;1.50;;
70543;SDS011;58097;48.364;-1.224;2024-03-23T10:20:52;11.52;;;1.60;;
70543;SDS011;58097;48.364;-1.224;2024-03-23T10:23:32;13.50;;;1.85;;
70543;SDS011;58097;48.364;-1.224;2024-03-23T10:31:17;12.05;;;2.97;;
70543;SDS011;58097;48.364;-1.224;2024-03-23T10:33:44;11.98;;;2.47;;
70543;SDS011;58097;48.364;-1.224;2024-03-23T10:36:11;12.60;;;2.45;;
70543;SDS011;58097;48.364;-1.224;2024-03-23T10:38:37;19.55;;;2.50;;
70543;SDS011;58097;48.364;-1.224;2024-03-23T10:41:05;13.43;;;2.58;;
70543;SDS011;58097;48.364;-1.224;2024-03-23T10:43:32;20.05;;;2.55;;
70543;SDS011;58097;48.364;-1.224;2024-03-23T10:45:58;12.18;;;2.08;;
70543;SDS011;58097;48.364;-1.224;2024-03-23T10:48:23;11.10;;;1.15;;
70543;SDS011;58097;48.364;-1.224;2024-03-23T10:50:49;5.65;;;1.40;;
70543;SDS011;58097;48.364;-1.224;2024-03-23T10:53:14;6.80;;;1.20;;
70543;SDS011;58097;48.364;-1.224;2024-03-23T10:55:42;10.23;;;1.35;;
70543;SDS011;58097;48.364;-1.224;2024-03-23T10:58:08;3.05;;;1.20;;
70543;SDS011;58097;48.364;-1.224;2024-03-23T11:00:37;4.43;;;1.10;;
70543;SDS011;58097;48.364;-1.224;2024-03-23T11:05:57;7.75;;;1.80;;
70543;SDS011;58097;48.364;-1.224;2024-03-23T11:08:36;9.55;;;2.05;;
70543;SDS011;58097;48.364;-1.224;2024-03-23T11:11:21;6.47;;;1.33;;
70543;SDS011;58097;48.364;-1.224;2024-03-23T11:13:51;8.90;;;1.40;;
70543;SDS011;58097;48.364;-1.224;2024-03-23T11:16:24;10.52;;;1.88;;
70543;SDS011;58097;48.364;-1.224;2024-03-23T11:18:53;7.05;;;2.00;;
70543;SDS011;58097;48.364;-1.224;2024-03-23T11:24:19;24.65;;;2.05;;
70543;SDS011;58097;48.364;-1.224;2024-03-23T11:26:46;7.50;;;1.27;;
70543;SDS011;58097;48.364;-1.224;2024-03-23T11:29:12;7.28;;;1.27;;
70543;SDS011;58097;48.364;-1.224;2024-03-23T11:31:44;11.88;;;1.52;;
70543;SDS011;58097;48.364;-1.224;2024-03-23T11:34:11;2.15;;;0.70;;
70543;SDS011;58097;48.364;-1.224;2024-03-23T11:36:36;5.88;;;1.05;;
70543;SDS011;58097;48.364;-1.224;2024-03-23T11:39:11;7.47;;;1.20;;
70543;SDS011;58097;48.364;-1.224;2024-03-23T11:41:51;6.05;;;1.02;;
70543;SDS011;58097;48.364;-1.224;2024-03-23T11:44:21;3.97;;;0.93;;
70543;SDS011;58097;48.364;-1.224;2024-03-23T11:46:48;10.98;;;2.55;;
70543;SDS011;58097;48.364;-1.224;2024-03-23T11:49:27;7.90;;;1.67;;
70543;SDS011;58097;48.364;-1.224;2024-03-23T11:51:54;3.92;;;0.93;;
70543;SDS011;58097;48.364;-1.224;2024-03-23T11:54:21;6.18;;;0.98;;
70543;SDS011;58097;48.364;-1.224;2024-03-23T11:56:59;2.22;;;0.80;;
70543;SDS011;58097;48.364;-1.224;2024-03-23T11:59:45;3.08;;;0.88;;
70543;SDS011;58097;48.364;-1.224;2024-03-23T12:02:11;6.90;;;2.05;;
70543;SDS011;58097;48.364;-1.224;2024-03-23T12:04:40;3.92;;;1.92;;
70543;SDS011;58097;48.364;-1.224;2024-03-23T12:07:09;6.18;;;1.13;;
70543;SDS011;58097;48.364;-1.224;2024-03-23T12:09:35;5.15;;;1.05;;
70543;SDS011;58097;48.364;-1.224;2024-03-23T12:14:33;8.82;;;1.20;;
70543;SDS011;58097;48.364;-1.224;2024-03-23T12:17:17;12.80;;;1.67;;
70543;SDS011;58097;48.364;-1.224;2024-03-23T12:19:46;5.47;;;1.00;;
70543;SDS011;58097;48.364;-1.224;2024-03-23T12:22:12;5.68;;;1.25;;
70543;SDS011;58097;48.364;-1.224;2024-03-23T12:24:37;6.82;;;1.60;;
70543;SDS011;58097;48.364;-1.224;2024-03-23T12:27:04;5.05;;;1.50;;
70543;SDS011;58097;48.364;-1.224;2024-03-23T12:29:32;10.65;;;1.83;;
70543;SDS011;58097;48.364;-1.224;2024-03-23T12:31:59;13.32;;;1.90;;
70543;SDS011;58097;48.364;-1.224;2024-03-23T12:34:28;10.73;;;2.20;;
70543;SDS011;58097;48.364;-1.224;2024-03-23T12:36:56;10.20;;;2.28;;
70543;SDS011;58097;48.364;-1.224;2024-03-23T12:39:22;15.40;;;2.08;;
70543;SDS011;58097;48.364;-1.224;2024-03-23T12:41:47;12.82;;;1.90;;
70543;SDS011;58097;48.364;-1.224;2024-03-23T12:44:13;10.18;;;1.90;;
70543;SDS011;58097;48.364;-1.224;2024-03-23T12:46:40;6.20;;;1.80;;
70543;SDS011;58097;48.364;-1.224;2024-03-23T12:49:06;7.50;;;1.80;;
70543;SDS011;58097;48.364;-1.224;2024-03-23T12:51:31;10.65;;;2.22;;
70543;SDS011;58097;48.364;-1.224;2024-03-23T12:53:57;7.55;;;1.48;;
70543;SDS011;58097;48.364;-1.224;2024-03-23T12:56:22;5.97;;;1.48;;
70543;SDS011;58097;48.364;-1.224;2024-03-23T12:58:48;15.77;;;1.80;;
70543;SDS011;58097;48.364;-1.224;2024-03-23T13:01:16;5.88;;;1.50;;
70543;SDS011;58097;48.364;-1.224;2024-03-23T13:03:47;8.95;;;1.27;;
70543;SDS011;58097;48.364;-1.224;2024-03-23T13:06:12;10.40;;;1.58;;
70543;SDS011;58097;48.364;-1.224;2024-03-23T13:08:38;3.40;;;0.75;;
70543;SDS011;58097;48.364;-1.224;2024-03-23T13:11:05;6.32;;;0.95;;
70543;SDS011;58097;48.364;-1.224;2024-03-23T13:13:31;7.60;;;1.10;;
70543;SDS011;58097;48.364;-1.224;2024-03-23T13:15:58;8.98;;;1.05;;
70543;SDS011;58097;48.364;-1.224;2024-03-23T13:18:23;3.50;;;0.90;;
70543;SDS011;58097;48.364;-1.224;2024-03-23T13:20:48;8.40;;;1.02;;
70543;SDS011;58097;48.364;-1.224;2024-03-23T13:23:14;8.75;;;1.55;;
70543;SDS011;58097;48.364;-1.224;2024-03-23T13:25:39;5.15;;;1.20;;
70543;SDS011;58097;48.364;-1.224;2024-03-23T13:28:05;4.38;;;0.90;;
70543;SDS011;58097;48.364;-1.224;2024-03-23T13:30:30;5.18;;;1.40;;
70543;SDS011;58097;48.364;-1.224;2024-03-23T13:32:56;8.00;;;2.08;;
70543;SDS011;58097;48.364;-1.224;2024-03-23T13:35:21;8.15;;;0.95;;
70543;SDS011;58097;48.364;-1.224;2024-03-23T13:37:47;7.93;;;1.20;;
70543;SDS011;58097;48.364;-1.224;2024-03-23T13:40:13;7.68;;;1.83;;
70543;SDS011;58097;48.364;-1.224;2024-03-23T13:42:39;8.85;;;1.98;;
70543;SDS011;58097;48.364;-1.224;2024-03-23T13:45:04;4.10;;;1.48;;
70543;SDS011;58097;48.364;-1.224;2024-03-23T13:47:30;7.65;;;1.10;;
70543;SDS011;58097;48.364;-1.224;2024-03-23T13:49:55;3.33;;;0.80;;
70543;SDS011;58097;48.364;-1.224;2024-03-23T13:52:21;4.35;;;0.95;;
70543;SDS011;58097;48.364;-1.224;2024-03-23T13:54:49;4.30;;;1.30;;
70543;SDS011;58097;48.364;-1.224;2024-03-23T13:57:15;3.83;;;0.95;;
70543;SDS011;58097;48.364;-1.224;2024-03-23T13:59:40;7.45;;;1.08;;
70543;SDS011;58097;48.364;-1.224;2024-03-23T14:02:05;2.05;;;0.80;;
70543;SDS011;58097;48.364;-1.224;2024-03-23T14:04:31;4.22;;;1.17;;
70543;SDS011;58097;48.364;-1.224;2024-03-23T14:06:56;4.93;;;0.90;;
70543;SDS011;58097;48.364;-1.224;2024-03-23T14:09:23;4.72;;;0.82;;
70543;SDS011;58097;48.364;-1.224;2024-03-23T14:11:50;2.42;;;0.68;;
70543;SDS011;58097;48.364;-1.224;2024-03-23T14:14:16;7.18;;;1.40;;
70543;SDS011;58097;48.364;-1.224;2024-03-23T14:16:42;5.35;;;1.15;;
70543;SDS011;58097;48.364;-1.224;2024-03-23T14:19:08;8.02;;;1.90;;
70543;SDS011;58097;48.364;-1.224;2024-03-23T14:21:33;7.35;;;1.92;;
70543;SDS011;58097;48.364;-1.224;2024-03-23T14:24:01;5.03;;;1.35;;
70543;SDS011;58097;48.364;-1.224;2024-03-23T14:26:27;6.82;;;1.80;;
70543;SDS011;58097;48.364;-1.224;2024-03-23T14:28:53;8.65;;;1.50;;
70543;SDS011;58097;48.364;-1.224;2024-03-23T14:31:18;8.88;;;1.17;;
70543;SDS011;58097;48.364;-1.224;2024-03-23T14:33:44;4.78;;;1.20;;
70543;SDS011;58097;48.364;-1.224;2024-03-23T14:36:13;6.75;;;2.40;;
70543;SDS011;58097;48.364;-1.224;2024-03-23T14:38:38;7.88;;;1.77;;
70543;SDS011;58097;48.364;-1.224;2024-03-23T14:41:04;3.55;;;0.77;;
70543;SDS011;58097;48.364;-1.224;2024-03-23T14:43:30;6.40;;;1.00;;
70543;SDS011;58097;48.364;-1.224;2024-03-23T14:46:05;5.35;;;1.27;;
70543;SDS011;58097;48.364;-1.224;2024-03-23T14:48:34;3.00;;;0.95;;
70543;SDS011;58097;48.364;-1.224;2024-03-23T14:51:00;3.40;;;1.10;;
70543;SDS011;58097;48.364;-1.224;2024-03-23T14:53:26;3.70;;;1.25;;
70543;SDS011;58097;48.364;-1.224;2024-03-23T14:55:55;5.93;;;1.80;;
70543;SDS011;58097;48.364;-1.224;2024-03-23T14:58:25;4.80;;;1.25;;
70543;SDS011;58097;48.364;-1.224;2024-03-23T15:00:51;1.52;;;0.98;;
70543;SDS011;58097;48.364;-1.224;2024-03-23T15:03:19;5.15;;;1.70;;
70543;SDS011;58097;48.364;-1.224;2024-03-23T15:05:57;5.55;;;1.42;;
70543;SDS011;58097;48.364;-1.224;2024-03-23T15:08:25;3.03;;;1.00;;
70543;SDS011;58097;48.364;-1.224;2024-03-23T15:10:50;2.80;;;1.10;;
70543;SDS011;58097;48.364;-1.224;2024-03-23T15:13:16;4.82;;;1.40;;
70543;SDS011;58097;48.364;-1.224;2024-03-23T15:15:42;5.43;;;1.10;;
70543;SDS011;58097;48.364;-1.224;2024-03-23T15:18:12;6.20;;;0.90;;
70543;SDS011;58097;48.364;-1.224;2024-03-23T15:20:39;2.50;;;0.80;;
70543;SDS011;58097;48.364;-1.224;2024-03-23T15:23:04;5.30;;;0.85;;
70543;SDS011;58097;48.364;-1.224;2024-03-23T15:25:30;5.97;;;0.90;;
70543;SDS011;58097;48.364;-1.224;2024-03-23T15:27:57;5.70;;;1.23;;
70543;SDS011;58097;48.364;-1.224;2024-03-23T15:30:23;9.82;;;1.35;;
70543;SDS011;58097;48.364;-1.224;2024-03-23T15:32:48;8.13;;;1.10;;
70543;SDS011;58097;48.364;-1.224;2024-03-23T15:35:14;7.47;;;1.10;;